Anne Sibum — C4YC2 — position and weather

sailwx.info

Track history (hours):
 
Tides and Currents Weather Stations Pressure Air Temp Water Temp Dewpoint Dewpoint Depression Visibility Wind Speed Wind Dir Waves Ship Positions

Anne Sibum

Last reported at 2014-Sep-20 13:34 UTC. Time now 2014-Sep-20 14:00 UTC.
Position N 55°10' E 014°20'.

Length 151 m; draft 8.2 m.

Type: Ship (hazmat cat A). MMSI: 209322000.

Date/timePositionNaut miles runAvg speedWind from/ knotsBaromVisibWave heightAir tempDewpointWater temp
2014-Sep-20 13:34N 55°10' E 014°20'1514.7
2014-Sep-20 12:34N 55°00' E 014°02'1515.4
2014-Sep-20 11:33N 54°55' E 013°36'1515.5
2014-Sep-20 10:33N 54°50' E 013°11'1111.1
2014-Sep-20 09:33N 54°46' E 012°53'0 0.1
2014-Sep-20 08:33N 54°46' E 012°53'0 0.3
2014-Sep-20 07:33N 54°46' E 012°52'1212.0
2014-Sep-20 06:33N 54°41' E 012°34'1313.4
2014-Sep-20 05:34N 54°31' E 012°17'1212.4
2014-Sep-20 04:33N 54°25' E 011°59'1413.7
2014-Sep-20 03:33N 54°27' E 011°36'1414.2
2014-Sep-20 02:33N 54°33' E 011°14'1414.3
2014-Sep-20 01:33N 54°34' E 010°49'1813.9
2014-Sep-20 00:16N 54°30' E 010°19'49 6.3
2014-Sep-19 16:33N 53°58' E 009°16'6 5.9
2014-Sep-19 15:33N 53°54' E 009°09'1 0.7
2014-Sep-19 14:33N 53°53' E 009°08'1513.3
2014-Sep-19 13:26N 53°44' E 009°28'1214.1
2014-Sep-19 12:33N 53°34' E 009°41'8 8.0
2014-Sep-19 11:31N 53°32' E 009°55'0 0.0
2014-Sep-19 10:31N 53°32' E 009°55'0 0.0
2014-Sep-19 09:30N 53°32' E 009°55'0 0.0
2014-Sep-19 08:24N 53°32' E 009°55'0 0.0
2014-Sep-19 07:29N 53°32' E 009°55'0 0.0
2014-Sep-19 06:29N 53°32' E 009°55'0 0.0
2014-Sep-19 05:32N 53°32' E 009°55'0 0.0
2014-Sep-19 04:34N 53°32' E 009°55'1 0.7
2014-Sep-19 03:31N 53°32' E 009°55'0 0.0
2014-Sep-19 02:19N 53°32' E 009°55'0 0.0
2014-Sep-19 01:24N 53°32' E 009°55'0 0.0
2014-Sep-19 00:30N 53°32' E 009°55'0 0.0
2014-Sep-18 23:17N 53°32' E 009°55'0 0.0
2014-Sep-18 22:29N 53°32' E 009°55'0 0.0
2014-Sep-18 21:33N 53°32' E 009°55'1 1.1
2014-Sep-18 20:33N 53°31' E 009°56'0 0.0
2014-Sep-18 19:28N 53°31' E 009°56'0 0.0
2014-Sep-18 18:28N 53°31' E 009°56'0 0.0
2014-Sep-18 17:27N 53°31' E 009°56'0 0.0
2014-Sep-18 16:15N 53°31' E 009°56'0 0.0
2014-Sep-18 15:32N 53°31' E 009°56'0 0.0
2014-Sep-18 14:29N 53°31' E 009°56'0 0.0
2014-Sep-18 13:32N 53°31' E 009°56'0 0.0
2014-Sep-18 12:31N 53°31' E 009°56'0 0.0
2014-Sep-18 11:31N 53°31' E 009°56'0 0.0
2014-Sep-18 10:33N 53°31' E 009°56'0 0.0
2014-Sep-18 09:18N 53°31' E 009°56'0 0.0
2014-Sep-18 08:26N 53°31' E 009°56'0 0.0
2014-Sep-18 07:17N 53°31' E 009°56'0 0.0
2014-Sep-18 06:28N 53°31' E 009°56'0 0.0
2014-Sep-18 05:28N 53°31' E 009°56'1 1.2
2014-Sep-18 04:33N 53°32' E 009°56'1 1.0
2014-Sep-18 03:33N 53°31' E 009°58'0 0.0
2014-Sep-18 02:33N 53°31' E 009°58'0 0.0
2014-Sep-18 01:33N 53°31' E 009°58'0 0.0
2014-Sep-18 00:33N 53°31' E 009°58'0 0.0
2014-Sep-17 23:33N 53°31' E 009°58'0 0.0
2014-Sep-17 22:33N 53°31' E 009°58'1 0.9
2014-Sep-17 21:33N 53°32' E 009°57'8 8.1
2014-Sep-17 20:33N 53°34' E 009°44'1210.4
2014-Sep-17 19:27N 53°42' E 009°30'1415.9
2014-Sep-17 18:33N 53°53' E 009°14'3 3.1
2014-Sep-17 17:33N 53°54' E 009°09'8 7.6
2014-Sep-17 16:31N 54°00' E 009°18'45 4.8
2014-Sep-17 07:10N 54°29' E 010°16'2 3.2
2014-Sep-17 06:33N 54°30' E 010°18'7 6.9
2014-Sep-17 05:33N 54°33' E 010°29'1010.1
2014-Sep-17 04:33N 54°36' E 010°46'1211.8
2014-Sep-17 03:33N 54°37' E 011°06'1312.9
2014-Sep-17 02:33N 54°32' E 011°27'1312.7
2014-Sep-17 01:33N 54°27' E 011°47'1312.8
2014-Sep-17 00:33N 54°27' E 012°09'1211.8
2014-Sep-16 23:33N 54°38' E 012°18'1313.1
2014-Sep-16 22:33N 54°45' E 012°36'1312.9
2014-Sep-16 21:32N 54°50' E 012°57'1313.0
2014-Sep-16 20:33N 54°55' E 013°18'1312.7
2014-Sep-16 19:33N 54°59' E 013°39'1212.3
2014-Sep-16 18:33N 55°04' E 013°59'1212.1
2014-Sep-16 17:33N 55°12' E 014°13'1313.1
2014-Sep-16 16:33N 55°22' E 014°28'1212.6
2014-Sep-16 15:33N 55°30' E 014°46'1312.7
2014-Sep-16 14:33N 55°37' E 015°05'1412.5
2014-Sep-16 13:24N 55°44' E 015°27'1112.7
2014-Sep-16 12:31N 55°49' E 015°45'1812.8
2014-Sep-16 11:06N 55°58' E 016°13'3712.7
2014-Sep-16 08:09N 56°19' E 017°08'1212.9
2014-Sep-16 07:14N 56°27' E 017°25'4013.2
2014-Sep-16 04:10N 56°52' E 018°23'3513.3
2014-Sep-16 01:31N 57°19' E 019°04'1513.1
2014-Sep-16 00:23N 57°31' E 019°20'1413.1
2014-Sep-15 23:19N 57°42' E 019°35'15713.4
2014-Sep-15 11:33N 59°35' E 023°06'1413.9
2014-Sep-15 10:33N 59°39' E 023°32'1413.6
2014-Sep-15 09:33N 59°43' E 023°58'4813.7
2014-Sep-15 06:05N 59°53' E 025°30'814.3
2014-Sep-15 05:32N 59°55' E 025°45'1514.2
2014-Sep-15 04:31N 59°58' E 026°13'1314.0
2014-Sep-15 03:34N 60°01' E 026°40'1413.5
2014-Sep-15 02:31N 60°01' E 027°08'8812.5
2014-Sep-14 19:28N 59°55' E 030°04'4 4.8
2014-Sep-14 18:33N 59°53' E 030°12'0 0.0
2014-Sep-14 08:21N 59°53' E 030°12'0 0.0
2014-Sep-14 07:30N 59°53' E 030°12'0 0.0
2014-Sep-14 06:14N 59°53' E 030°12'0 0.0
2014-Sep-14 05:26N 59°53' E 030°12'0 0.0
2014-Sep-14 04:17N 59°53' E 030°12'0 0.0
2014-Sep-14 01:33N 59°53' E 030°12'11212.4
2014-Sep-13 16:33N 59°58' E 026°30'4915.3
2014-Sep-13 13:21N 59°47' E 024°55'1215.0
2014-Sep-13 12:33N 59°44' E 024°31'3015.0
2014-Sep-13 10:33N 59°35' E 023°35'36015.6
2014-Sep-12 11:32N 55°35' E 015°16'1515.4
2014-Sep-12 10:33N 55°27' E 014°53'1515.3
2014-Sep-12 09:33N 55°18' E 014°32'1515.4
2014-Sep-12 08:33N 55°06' E 014°14'1514.9
2014-Sep-12 07:33N 54°59' E 013°51'1615.6
2014-Sep-12 06:33N 54°54' E 013°25'1515.2
2014-Sep-12 05:33N 54°48' E 013°01'1514.7
2014-Sep-12 04:33N 54°42' E 012°38'1514.9
2014-Sep-12 03:33N 54°33' E 012°18'1313.2
2014-Sep-12 02:33N 54°25' E 011°60'1515.2
2014-Sep-12 01:33N 54°28' E 011°34'1515.4
2014-Sep-12 00:34N 54°35' E 011°10'57 8.0
2014-Sep-11 17:29N 54°16' E 009°38'7 8.0
2014-Sep-11 16:33N 54°11' E 009°29'7 7.1
2014-Sep-11 15:33N 54°06' E 009°20'9 8.6
2014-Sep-11 14:33N 53°58' E 009°16'6 6.0
2014-Sep-11 13:33N 53°54' E 009°09'1 1.2
2014-Sep-11 12:33N 53°53' E 009°07'1 0.5
2014-Sep-11 11:32N 53°53' E 009°06'2 2.4
2014-Sep-11 10:34N 53°52' E 009°03'1312.8
2014-Sep-11 09:34N 53°54' E 008°41'1515.5
2014-Sep-11 08:33N 53°59' E 008°17'1414.2
2014-Sep-11 07:33N 53°53' E 007°55'1413.7
2014-Sep-11 06:33N 53°45' E 008°13'1514.8
2014-Sep-11 05:33N 53°35' E 008°32'0 0.0
2014-Sep-11 04:32N 53°35' E 008°32'0 0.0
2014-Sep-11 03:32N 53°35' E 008°32'0 0.0
2014-Sep-11 02:32N 53°35' E 008°32'0 0.0
2014-Sep-11 01:28N 53°35' E 008°32'0 0.0
2014-Sep-11 00:31N 53°35' E 008°32'1 0.8
2014-Sep-10 23:33N 53°36' E 008°31'1615.8
2014-Sep-10 22:33N 53°46' E 008°11'1310.9
2014-Sep-10 21:23N 53°56' E 007°58'1012.0
2014-Sep-10 20:32N 54°00' E 008°14'1515.3
2014-Sep-10 19:33N 53°57' E 008°39'1514.6
2014-Sep-10 18:31N 53°52' E 009°03'2412.2
2014-Sep-10 16:33N 53°37' E 009°34'1110.8
2014-Sep-10 15:34N 53°33' E 009°51'2 2.4
2014-Sep-10 14:31N 53°32' E 009°55'  
Track history (hours):
 
Tides and Currents Weather Stations Pressure Air Temp Water Temp Dewpoint Dewpoint Depression Visibility Wind Speed Wind Dir Waves Ship Positions

Anne Sibum

Last reported at 2014-Sep-20 13:34 UTC. Time now 2014-Sep-20 14:00 UTC.
Position N 55°10' E 014°20'.

Length 151 m; draft 8.2 m.

Type: Ship (hazmat cat A). MMSI: 209322000.

Date/timePositionNaut miles runAvg speedWind from/ knotsBaromVisibWave heightAir tempDewpointWater temp
2014-Sep-20 13:34N 55°10' E 014°20'1514.7
2014-Sep-20 12:34N 55°00' E 014°02'1515.4
2014-Sep-20 11:33N 54°55' E 013°36'1515.5
2014-Sep-20 10:33N 54°50' E 013°11'1111.1
2014-Sep-20 09:33N 54°46' E 012°53'0 0.1
2014-Sep-20 08:33N 54°46' E 012°53'0 0.3
2014-Sep-20 07:33N 54°46' E 012°52'1212.0
2014-Sep-20 06:33N 54°41' E 012°34'1313.4
2014-Sep-20 05:34N 54°31' E 012°17'1212.4
2014-Sep-20 04:33N 54°25' E 011°59'1413.7
2014-Sep-20 03:33N 54°27' E 011°36'1414.2
2014-Sep-20 02:33N 54°33' E 011°14'1414.3
2014-Sep-20 01:33N 54°34' E 010°49'1813.9
2014-Sep-20 00:16N 54°30' E 010°19'49 6.3
2014-Sep-19 16:33N 53°58' E 009°16'6 5.9
2014-Sep-19 15:33N 53°54' E 009°09'1 0.7
2014-Sep-19 14:33N 53°53' E 009°08'1513.3
2014-Sep-19 13:26N 53°44' E 009°28'1214.1
2014-Sep-19 12:33N 53°34' E 009°41'8 8.0
2014-Sep-19 11:31N 53°32' E 009°55'0 0.0
2014-Sep-19 10:31N 53°32' E 009°55'0 0.0
2014-Sep-19 09:30N 53°32' E 009°55'0 0.0
2014-Sep-19 08:24N 53°32' E 009°55'0 0.0
2014-Sep-19 07:29N 53°32' E 009°55'0 0.0
2014-Sep-19 06:29N 53°32' E 009°55'0 0.0
2014-Sep-19 05:32N 53°32' E 009°55'0 0.0
2014-Sep-19 04:34N 53°32' E 009°55'1 0.7
2014-Sep-19 03:31N 53°32' E 009°55'0 0.0
2014-Sep-19 02:19N 53°32' E 009°55'0 0.0
2014-Sep-19 01:24N 53°32' E 009°55'0 0.0
2014-Sep-19 00:30N 53°32' E 009°55'0 0.0
2014-Sep-18 23:17N 53°32' E 009°55'0 0.0
2014-Sep-18 22:29N 53°32' E 009°55'0 0.0
2014-Sep-18 21:33N 53°32' E 009°55'1 1.1
2014-Sep-18 20:33N 53°31' E 009°56'0 0.0
2014-Sep-18 19:28N 53°31' E 009°56'0 0.0
2014-Sep-18 18:28N 53°31' E 009°56'0 0.0
2014-Sep-18 17:27N 53°31' E 009°56'0 0.0
2014-Sep-18 16:15N 53°31' E 009°56'0 0.0
2014-Sep-18 15:32N 53°31' E 009°56'0 0.0
2014-Sep-18 14:29N 53°31' E 009°56'0 0.0
2014-Sep-18 13:32N 53°31' E 009°56'0 0.0
2014-Sep-18 12:31N 53°31' E 009°56'0 0.0
2014-Sep-18 11:31N 53°31' E 009°56'0 0.0
2014-Sep-18 10:33N 53°31' E 009°56'0 0.0
2014-Sep-18 09:18N 53°31' E 009°56'0 0.0
2014-Sep-18 08:26N 53°31' E 009°56'0 0.0
2014-Sep-18 07:17N 53°31' E 009°56'0 0.0
2014-Sep-18 06:28N 53°31' E 009°56'0 0.0
2014-Sep-18 05:28N 53°31' E 009°56'1 1.2
2014-Sep-18 04:33N 53°32' E 009°56'1 1.0
2014-Sep-18 03:33N 53°31' E 009°58'0 0.0
2014-Sep-18 02:33N 53°31' E 009°58'0 0.0
2014-Sep-18 01:33N 53°31' E 009°58'0 0.0
2014-Sep-18 00:33N 53°31' E 009°58'0 0.0
2014-Sep-17 23:33N 53°31' E 009°58'0 0.0
2014-Sep-17 22:33N 53°31' E 009°58'1 0.9
2014-Sep-17 21:33N 53°32' E 009°57'8 8.1
2014-Sep-17 20:33N 53°34' E 009°44'1210.4
2014-Sep-17 19:27N 53°42' E 009°30'1415.9
2014-Sep-17 18:33N 53°53' E 009°14'3 3.1
2014-Sep-17 17:33N 53°54' E 009°09'8 7.6
2014-Sep-17 16:31N 54°00' E 009°18'45 4.8
2014-Sep-17 07:10N 54°29' E 010°16'2 3.2
2014-Sep-17 06:33N 54°30' E 010°18'7 6.9
2014-Sep-17 05:33N 54°33' E 010°29'1010.1
2014-Sep-17 04:33N 54°36' E 010°46'1211.8
2014-Sep-17 03:33N 54°37' E 011°06'1312.9
2014-Sep-17 02:33N 54°32' E 011°27'1312.7
2014-Sep-17 01:33N 54°27' E 011°47'1312.8
2014-Sep-17 00:33N 54°27' E 012°09'1211.8
2014-Sep-16 23:33N 54°38' E 012°18'1313.1
2014-Sep-16 22:33N 54°45' E 012°36'1312.9
2014-Sep-16 21:32N 54°50' E 012°57'1313.0
2014-Sep-16 20:33N 54°55' E 013°18'1312.7
2014-Sep-16 19:33N 54°59' E 013°39'1212.3
2014-Sep-16 18:33N 55°04' E 013°59'1212.1
2014-Sep-16 17:33N 55°12' E 014°13'1313.1
2014-Sep-16 16:33N 55°22' E 014°28'1212.6
2014-Sep-16 15:33N 55°30' E 014°46'1312.7
2014-Sep-16 14:33N 55°37' E 015°05'1412.5
2014-Sep-16 13:24N 55°44' E 015°27'1112.7
2014-Sep-16 12:31N 55°49' E 015°45'1812.8
2014-Sep-16 11:06N 55°58' E 016°13'3712.7
2014-Sep-16 08:09N 56°19' E 017°08'1212.9
2014-Sep-16 07:14N 56°27' E 017°25'4013.2
2014-Sep-16 04:10N 56°52' E 018°23'3513.3
2014-Sep-16 01:31N 57°19' E 019°04'1513.1
2014-Sep-16 00:23N 57°31' E 019°20'1413.1
2014-Sep-15 23:19N 57°42' E 019°35'15713.4
2014-Sep-15 11:33N 59°35' E 023°06'1413.9
2014-Sep-15 10:33N 59°39' E 023°32'1413.6
2014-Sep-15 09:33N 59°43' E 023°58'4813.7
2014-Sep-15 06:05N 59°53' E 025°30'814.3
2014-Sep-15 05:32N 59°55' E 025°45'1514.2
2014-Sep-15 04:31N 59°58' E 026°13'1314.0
2014-Sep-15 03:34N 60°01' E 026°40'1413.5
2014-Sep-15 02:31N 60°01' E 027°08'8812.5
2014-Sep-14 19:28N 59°55' E 030°04'4 4.8
2014-Sep-14 18:33N 59°53' E 030°12'0 0.0
2014-Sep-14 08:21N 59°53' E 030°12'0 0.0
2014-Sep-14 07:30N 59°53' E 030°12'0 0.0
2014-Sep-14 06:14N 59°53' E 030°12'0 0.0
2014-Sep-14 05:26N 59°53' E 030°12'0 0.0
2014-Sep-14 04:17N 59°53' E 030°12'0 0.0
2014-Sep-14 01:33N 59°53' E 030°12'11212.4
2014-Sep-13 16:33N 59°58' E 026°30'4915.3
2014-Sep-13 13:21N 59°47' E 024°55'1215.0
2014-Sep-13 12:33N 59°44' E 024°31'3015.0
2014-Sep-13 10:33N 59°35' E 023°35'36015.6
2014-Sep-12 11:32N 55°35' E 015°16'1515.4
2014-Sep-12 10:33N 55°27' E 014°53'1515.3
2014-Sep-12 09:33N 55°18' E 014°32'1515.4
2014-Sep-12 08:33N 55°06' E 014°14'1514.9
2014-Sep-12 07:33N 54°59' E 013°51'1615.6
2014-Sep-12 06:33N 54°54' E 013°25'1515.2
2014-Sep-12 05:33N 54°48' E 013°01'1514.7
2014-Sep-12 04:33N 54°42' E 012°38'1514.9
2014-Sep-12 03:33N 54°33' E 012°18'1313.2
2014-Sep-12 02:33N 54°25' E 011°60'1515.2
2014-Sep-12 01:33N 54°28' E 011°34'1515.4
2014-Sep-12 00:34N 54°35' E 011°10'57 8.0
2014-Sep-11 17:29N 54°16' E 009°38'7 8.0
2014-Sep-11 16:33N 54°11' E 009°29'7 7.1
2014-Sep-11 15:33N 54°06' E 009°20'9 8.6
2014-Sep-11 14:33N 53°58' E 009°16'6 6.0
2014-Sep-11 13:33N 53°54' E 009°09'1 1.2
2014-Sep-11 12:33N 53°53' E 009°07'1 0.5
2014-Sep-11 11:32N 53°53' E 009°06'2 2.4
2014-Sep-11 10:34N 53°52' E 009°03'1312.8
2014-Sep-11 09:34N 53°54' E 008°41'1515.5
2014-Sep-11 08:33N 53°59' E 008°17'1414.2
2014-Sep-11 07:33N 53°53' E 007°55'1413.7
2014-Sep-11 06:33N 53°45' E 008°13'1514.8
2014-Sep-11 05:33N 53°35' E 008°32'0 0.0
2014-Sep-11 04:32N 53°35' E 008°32'0 0.0
2014-Sep-11 03:32N 53°35' E 008°32'0 0.0
2014-Sep-11 02:32N 53°35' E 008°32'0 0.0
2014-Sep-11 01:28N 53°35' E 008°32'0 0.0
2014-Sep-11 00:31N 53°35' E 008°32'1 0.8
2014-Sep-10 23:33N 53°36' E 008°31'1615.8
2014-Sep-10 22:33N 53°46' E 008°11'1310.9
2014-Sep-10 21:23N 53°56' E 007°58'1012.0
2014-Sep-10 20:32N 54°00' E 008°14'1515.3
2014-Sep-10 19:33N 53°57' E 008°39'1514.6
2014-Sep-10 18:31N 53°52' E 009°03'2412.2
2014-Sep-10 16:33N 53°37' E 009°34'1110.8
2014-Sep-10 15:34N 53°33' E 009°51'2 2.4
2014-Sep-10 14:31N 53°32' E 009°55'  

Dump ship's entire track history